Tasman Mariner — VRWW8 — position and weather

sailwx.info

Track history (hours):
 
Tides and Currents Weather Stations Pressure Air Temp Water Temp Dewpoint Dewpoint Depression Visibility Wind Speed Wind Dir Waves Ship Positions

Tasman Mariner

Last reported at 2014-Dec-22 04:25 UTC. Time now 2014-Dec-22 06:22 UTC.
Position S 25°45' E 153°27'.

Length 184 m; beam 27 m; draft 10 m.

Type: Cargo ship. MMSI: 477860000.

Date/timePositionNaut miles runAvg speedWind from/ knotsBaromVisibWave heightAir tempDewpointWater temp
2014-Dec-22 04:25S 25°45' E 153°27'5513.3
2014-Dec-22 00:17S 26°39' E 153°15'811.2
2014-Dec-21 23:34S 26°46' E 153°11'1312.7
2014-Dec-21 22:33S 26°59' E 153°14'1312.9
2014-Dec-21 21:33S 27°10' E 153°21'1312.7
2014-Dec-21 20:33S 27°20' E 153°12'2 1.7
2014-Dec-21 19:33S 27°22' E 153°11'0 0.0
2014-Dec-21 18:33S 27°22' E 153°11'0 0.0
2014-Dec-21 17:33S 27°22' E 153°11'0 0.0
2014-Dec-21 16:33S 27°22' E 153°11'0 0.0
2014-Dec-21 15:33S 27°22' E 153°11'0 0.0
2014-Dec-21 14:33S 27°22' E 153°11'0 0.0
2014-Dec-21 13:33S 27°22' E 153°11'0 0.0
2014-Dec-21 12:33S 27°22' E 153°11'0 0.0
2014-Dec-21 11:30S 27°22' E 153°11'0 0.0
2014-Dec-21 10:30S 27°22' E 153°11'0 0.0
2014-Dec-21 09:33S 27°22' E 153°11'0 0.0
2014-Dec-21 08:33S 27°22' E 153°11'0 0.0
2014-Dec-21 07:33S 27°22' E 153°11'0 0.0
2014-Dec-21 06:33S 27°22' E 153°11'0 0.0
2014-Dec-21 05:33S 27°22' E 153°11'0 0.0
2014-Dec-21 04:33S 27°22' E 153°11'0 0.0
2014-Dec-21 03:33S 27°22' E 153°11'0 0.0
2014-Dec-21 02:33S 27°22' E 153°11'0 0.0
2014-Dec-21 01:33S 27°22' E 153°11'0 0.0
2014-Dec-21 00:30S 27°22' E 153°11'0 0.0
2014-Dec-20 23:33S 27°22' E 153°11'1 0.7
2014-Dec-20 22:33S 27°21' E 153°11'10 9.6
2014-Dec-20 21:33S 27°15' E 153°19'1212.2
2014-Dec-20 20:34S 27°03' E 153°17'1413.6
2014-Dec-20 19:33S 26°51' E 153°09'8 7.8
2014-Dec-20 18:33S 26°45' E 153°14'1010.5
2014-Dec-20 17:33S 26°50' E 153°25'1010.4
2014-Dec-20 16:33S 26°55' E 153°35'1211.9
2014-Dec-20 15:33S 27°06' E 153°40'1211.9
2014-Dec-20 14:33S 27°18' E 153°40'1212.2
2014-Dec-20 13:33S 27°30' E 153°40'1211.6
2014-Dec-20 12:33S 27°42' E 153°41'1111.1
2014-Dec-20 11:33S 27°53' E 153°40'1110.9
2014-Dec-20 10:33S 28°04' E 153°42'5111.1
2014-Dec-20 06:00S 28°54' E 153°36'21814.1 080 / 161013.910.8 0.528.022.125.0
2014-Dec-19 14:31S 32°26' E 152°38'1414.5
2014-Dec-19 13:33S 32°37' E 152°28'1514.5
2014-Dec-19 12:33S 32°48' E 152°17'1414.0
2014-Dec-19 11:33S 32°52' E 152°01'1211.3
2014-Dec-19 10:32S 32°55' E 151°47'1 0.4
2014-Dec-19 08:05S 32°55' E 151°46'0 0.0
2014-Dec-19 06:11S 32°55' E 151°46'0 0.0
2014-Dec-19 05:11S 32°55' E 151°46'0 0.0
2014-Dec-19 03:23S 32°55' E 151°46'0 0.0
2014-Dec-19 02:29S 32°55' E 151°46'0 0.0
2014-Dec-19 01:29S 32°55' E 151°46'0 0.0
2014-Dec-19 00:29S 32°55' E 151°46'0 0.0
2014-Dec-18 22:11S 32°55' E 151°46'0 0.0
2014-Dec-18 21:29S 32°55' E 151°46'0 0.0
2014-Dec-18 20:29S 32°55' E 151°46'0 0.0
2014-Dec-18 19:23S 32°55' E 151°46'0 0.0
2014-Dec-18 18:05S 32°55' E 151°46'0 0.0
2014-Dec-18 17:29S 32°55' E 151°46'0 0.0
2014-Dec-18 16:32S 32°55' E 151°46'0 0.0
2014-Dec-18 15:32S 32°55' E 151°46'0 0.0
2014-Dec-18 14:32S 32°55' E 151°46'0 0.0
2014-Dec-18 13:32S 32°55' E 151°46'0 0.0
2014-Dec-18 12:32S 32°55' E 151°46'0 0.0
2014-Dec-18 11:23S 32°55' E 151°46'0 0.0
2014-Dec-18 10:29S 32°55' E 151°46'0 0.0
2014-Dec-18 09:29S 32°55' E 151°46'0 0.0
2014-Dec-18 08:29S 32°55' E 151°46'0 0.0
2014-Dec-18 07:29S 32°55' E 151°46'0 0.0
2014-Dec-18 06:05S 32°55' E 151°46'0 0.0
2014-Dec-18 04:23S 32°55' E 151°46'0 0.0
2014-Dec-18 03:29S 32°55' E 151°46'0 0.0
2014-Dec-18 02:29S 32°55' E 151°46'0 0.0
2014-Dec-18 01:29S 32°55' E 151°46'0 0.0
2014-Dec-18 00:29S 32°55' E 151°46'0 0.0
2014-Dec-17 23:29S 32°55' E 151°46'0 0.0
2014-Dec-17 22:29S 32°55' E 151°46'0 0.0
2014-Dec-17 21:30S 32°55' E 151°46'1 0.8
2014-Dec-17 20:31S 32°55' E 151°47'4 4.1
2014-Dec-17 19:33S 32°57' E 151°51'104 3.4
2014-Dec-16 13:15S 34°35' E 151°10'93 9.6
2014-Dec-16 03:30S 36°01' E 150°23'129 9.9
2014-Dec-15 14:32S 38°02' E 149°28'1211.6
2014-Dec-15 13:30S 38°09' E 149°17'1511.4
2014-Dec-15 12:10S 38°18' E 149°01'1211.5
2014-Dec-15 11:07S 38°26' E 148°49'1011.4
2014-Dec-15 10:16S 38°32' E 148°39'1111.6
2014-Dec-15 09:19S 38°39' E 148°28'1411.4
2014-Dec-15 08:07S 38°47' E 148°14'711.6
2014-Dec-15 07:30S 38°49' E 148°06'1111.1
2014-Dec-15 06:34S 38°53' E 147°53'2310.7
2014-Dec-15 04:27S 39°01' E 147°26'2211.3
2014-Dec-15 02:28S 39°09' E 146°59'1612.6
2014-Dec-15 01:13S 39°15' E 146°40'2211.7
2014-Dec-14 23:22S 39°15' E 146°12'  
2014-Dec-12 19:15S 37°53' E 144°55'0 0.0
2014-Dec-12 18:09S 37°53' E 144°55'0 0.1
2014-Dec-12 17:15S 37°53' E 144°54'  
Track history (hours):
 
Tides and Currents Weather Stations Pressure Air Temp Water Temp Dewpoint Dewpoint Depression Visibility Wind Speed Wind Dir Waves Ship Positions

Tasman Mariner

Last reported at 2014-Dec-22 04:25 UTC. Time now 2014-Dec-22 06:22 UTC.
Position S 25°45' E 153°27'.

Length 184 m; beam 27 m; draft 10 m.

Type: Cargo ship. MMSI: 477860000.

Date/timePositionNaut miles runAvg speedWind from/ knotsBaromVisibWave heightAir tempDewpointWater temp
2014-Dec-22 04:25S 25°45' E 153°27'5513.3
2014-Dec-22 00:17S 26°39' E 153°15'811.2
2014-Dec-21 23:34S 26°46' E 153°11'1312.7
2014-Dec-21 22:33S 26°59' E 153°14'1312.9
2014-Dec-21 21:33S 27°10' E 153°21'1312.7
2014-Dec-21 20:33S 27°20' E 153°12'2 1.7
2014-Dec-21 19:33S 27°22' E 153°11'0 0.0
2014-Dec-21 18:33S 27°22' E 153°11'0 0.0
2014-Dec-21 17:33S 27°22' E 153°11'0 0.0
2014-Dec-21 16:33S 27°22' E 153°11'0 0.0
2014-Dec-21 15:33S 27°22' E 153°11'0 0.0
2014-Dec-21 14:33S 27°22' E 153°11'0 0.0
2014-Dec-21 13:33S 27°22' E 153°11'0 0.0
2014-Dec-21 12:33S 27°22' E 153°11'0 0.0
2014-Dec-21 11:30S 27°22' E 153°11'0 0.0
2014-Dec-21 10:30S 27°22' E 153°11'0 0.0
2014-Dec-21 09:33S 27°22' E 153°11'0 0.0
2014-Dec-21 08:33S 27°22' E 153°11'0 0.0
2014-Dec-21 07:33S 27°22' E 153°11'0 0.0
2014-Dec-21 06:33S 27°22' E 153°11'0 0.0
2014-Dec-21 05:33S 27°22' E 153°11'0 0.0
2014-Dec-21 04:33S 27°22' E 153°11'0 0.0
2014-Dec-21 03:33S 27°22' E 153°11'0 0.0
2014-Dec-21 02:33S 27°22' E 153°11'0 0.0
2014-Dec-21 01:33S 27°22' E 153°11'0 0.0
2014-Dec-21 00:30S 27°22' E 153°11'0 0.0
2014-Dec-20 23:33S 27°22' E 153°11'1 0.7
2014-Dec-20 22:33S 27°21' E 153°11'10 9.6
2014-Dec-20 21:33S 27°15' E 153°19'1212.2
2014-Dec-20 20:34S 27°03' E 153°17'1413.6
2014-Dec-20 19:33S 26°51' E 153°09'8 7.8
2014-Dec-20 18:33S 26°45' E 153°14'1010.5
2014-Dec-20 17:33S 26°50' E 153°25'1010.4
2014-Dec-20 16:33S 26°55' E 153°35'1211.9
2014-Dec-20 15:33S 27°06' E 153°40'1211.9
2014-Dec-20 14:33S 27°18' E 153°40'1212.2
2014-Dec-20 13:33S 27°30' E 153°40'1211.6
2014-Dec-20 12:33S 27°42' E 153°41'1111.1
2014-Dec-20 11:33S 27°53' E 153°40'1110.9
2014-Dec-20 10:33S 28°04' E 153°42'5111.1
2014-Dec-20 06:00S 28°54' E 153°36'21814.1 080 / 161013.910.8 0.528.022.125.0
2014-Dec-19 14:31S 32°26' E 152°38'1414.5
2014-Dec-19 13:33S 32°37' E 152°28'1514.5
2014-Dec-19 12:33S 32°48' E 152°17'1414.0
2014-Dec-19 11:33S 32°52' E 152°01'1211.3
2014-Dec-19 10:32S 32°55' E 151°47'1 0.4
2014-Dec-19 08:05S 32°55' E 151°46'0 0.0
2014-Dec-19 06:11S 32°55' E 151°46'0 0.0
2014-Dec-19 05:11S 32°55' E 151°46'0 0.0
2014-Dec-19 03:23S 32°55' E 151°46'0 0.0
2014-Dec-19 02:29S 32°55' E 151°46'0 0.0
2014-Dec-19 01:29S 32°55' E 151°46'0 0.0
2014-Dec-19 00:29S 32°55' E 151°46'0 0.0
2014-Dec-18 22:11S 32°55' E 151°46'0 0.0
2014-Dec-18 21:29S 32°55' E 151°46'0 0.0
2014-Dec-18 20:29S 32°55' E 151°46'0 0.0
2014-Dec-18 19:23S 32°55' E 151°46'0 0.0
2014-Dec-18 18:05S 32°55' E 151°46'0 0.0
2014-Dec-18 17:29S 32°55' E 151°46'0 0.0
2014-Dec-18 16:32S 32°55' E 151°46'0 0.0
2014-Dec-18 15:32S 32°55' E 151°46'0 0.0
2014-Dec-18 14:32S 32°55' E 151°46'0 0.0
2014-Dec-18 13:32S 32°55' E 151°46'0 0.0
2014-Dec-18 12:32S 32°55' E 151°46'0 0.0
2014-Dec-18 11:23S 32°55' E 151°46'0 0.0
2014-Dec-18 10:29S 32°55' E 151°46'0 0.0
2014-Dec-18 09:29S 32°55' E 151°46'0 0.0
2014-Dec-18 08:29S 32°55' E 151°46'0 0.0
2014-Dec-18 07:29S 32°55' E 151°46'0 0.0
2014-Dec-18 06:05S 32°55' E 151°46'0 0.0
2014-Dec-18 04:23S 32°55' E 151°46'0 0.0
2014-Dec-18 03:29S 32°55' E 151°46'0 0.0
2014-Dec-18 02:29S 32°55' E 151°46'0 0.0
2014-Dec-18 01:29S 32°55' E 151°46'0 0.0
2014-Dec-18 00:29S 32°55' E 151°46'0 0.0
2014-Dec-17 23:29S 32°55' E 151°46'0 0.0
2014-Dec-17 22:29S 32°55' E 151°46'0 0.0
2014-Dec-17 21:30S 32°55' E 151°46'1 0.8
2014-Dec-17 20:31S 32°55' E 151°47'4 4.1
2014-Dec-17 19:33S 32°57' E 151°51'104 3.4
2014-Dec-16 13:15S 34°35' E 151°10'93 9.6
2014-Dec-16 03:30S 36°01' E 150°23'129 9.9
2014-Dec-15 14:32S 38°02' E 149°28'1211.6
2014-Dec-15 13:30S 38°09' E 149°17'1511.4
2014-Dec-15 12:10S 38°18' E 149°01'1211.5
2014-Dec-15 11:07S 38°26' E 148°49'1011.4
2014-Dec-15 10:16S 38°32' E 148°39'1111.6
2014-Dec-15 09:19S 38°39' E 148°28'1411.4
2014-Dec-15 08:07S 38°47' E 148°14'711.6
2014-Dec-15 07:30S 38°49' E 148°06'1111.1
2014-Dec-15 06:34S 38°53' E 147°53'2310.7
2014-Dec-15 04:27S 39°01' E 147°26'2211.3
2014-Dec-15 02:28S 39°09' E 146°59'1612.6
2014-Dec-15 01:13S 39°15' E 146°40'2211.7
2014-Dec-14 23:22S 39°15' E 146°12'  
2014-Dec-12 19:15S 37°53' E 144°55'0 0.0
2014-Dec-12 18:09S 37°53' E 144°55'0 0.1
2014-Dec-12 17:15S 37°53' E 144°54'  

Dump ship's entire track history